Time;durP1;ratioP1;P1;durP2;ratioP2;P2;SDS_P1;SDS_P2;PMS_P1;PMS_P2;Temp;Humidity;BMP_temperature;BMP_pressure;BME280_temperature;BME280_humidity;BME280_pressure;Samples;Min_cycle;Max_cycle;Signal;HPM_P1;HPM_P2
2023/01/15 00:01:43;;;;;;;2.15;1.00;;;18.90;83.60;;;;;;5070831;28;20706;-59
2023/01/15 00:04:31;;;;;;;3.88;0.90;;;19.00;83.70;;;;;;5071115;28;20715;-60
2023/01/15 00:07:21;;;;;;;0.90;0.90;;;18.90;83.60;;;;;;5071628;28;20278;-59
2023/01/15 00:10:10;;;;;;;0.77;0.77;;;18.90;83.70;;;;;;5071406;28;20233;-60
2023/01/15 00:12:58;;;;;;;1.65;0.82;;;18.90;83.60;;;;;;5071741;28;20196;-60
2023/01/15 00:15:46;;;;;;;1.50;0.80;;;18.90;83.70;;;;;;5071260;28;20299;-59
2023/01/15 00:18:34;;;;;;;1.02;0.93;;;18.80;83.70;;;;;;5071243;28;20220;-60
2023/01/15 00:21:23;;;;;;;1.00;0.90;;;18.90;83.80;;;;;;5071890;28;20328;-60
2023/01/15 00:30:24;;;;;;;1.02;0.70;;;18.70;84.20;;;;;;5069404;28;20327;-64
2023/01/15 00:33:12;;;;;;;1.30;1.10;;;18.70;84.30;;;;;;5070758;28;20275;-64
2023/01/15 00:36:00;;;;;;;0.70;0.70;;;18.70;84.30;;;;;;5071020;28;20743;-64
2023/01/15 00:38:48;;;;;;;1.80;0.90;;;18.80;84.30;;;;;;5070553;28;20204;-61
2023/01/15 00:41:38;;;;;;;1.30;0.80;;;18.80;84.30;;;;;;5070474;28;20285;-62
2023/01/15 00:44:26;;;;;;;1.40;0.95;;;18.80;84.40;;;;;;5070480;28;20687;-61
2023/01/15 00:47:14;;;;;;;1.15;0.98;;;18.90;84.40;;;;;;5069482;28;20660;-60
2023/01/15 00:50:02;;;;;;;1.58;0.77;;;18.90;84.30;;;;;;5069405;28;20207;-60
2023/01/15 00:52:50;;;;;;;0.90;0.70;;;18.90;84.20;;;;;;5069877;28;20200;-59
2023/01/15 00:55:38;;;;;;;1.05;0.95;;;19.00;84.10;;;;;;5074613;28;20752;-60
2023/01/15 00:58:27;;;;;;;0.73;0.70;;;19.00;84.00;;;;;;5074481;28;20305;-60
2023/01/15 01:01:16;;;;;;;0.88;0.80;;;19.00;83.80;;;;;;5074811;28;20223;-59
2023/01/15 01:04:04;;;;;;;0.93;0.80;;;19.10;83.80;;;;;;5074597;28;20197;-59
2023/01/15 01:06:52;;;;;;;0.73;0.70;;;19.10;83.70;;;;;;5074236;28;20278;-59
2023/01/15 01:09:40;;;;;;;1.13;0.80;;;19.10;83.70;;;;;;5075330;28;20200;-59
2023/01/15 01:12:28;;;;;;;0.93;0.82;;;19.10;83.60;;;;;;5074676;28;20207;-58
2023/01/15 01:15:17;;;;;;;1.40;0.80;;;19.20;83.60;;;;;;5075939;28;20294;-59
2023/01/15 01:18:06;;;;;;;1.02;0.80;;;19.10;83.60;;;;;;5075633;28;20270;-59
2023/01/15 01:20:55;;;;;;;0.80;0.70;;;19.10;83.60;;;;;;5074868;28;20315;-58
2023/01/15 01:23:43;;;;;;;2.42;0.90;;;19.10;83.70;;;;;;5075325;28;20193;-59
2023/01/15 01:26:31;;;;;;;1.60;0.90;;;19.10;95.90;;;;;;5074668;28;20197;-58
2023/01/15 01:29:21;;;;;;;1.00;0.65;;;19.10;83.70;;;;;;5074643;28;20673;-59
2023/01/15 01:32:12;;;;;;;0.80;0.80;;;19.00;83.50;;;;;;5074309;28;20554;-59
2023/01/15 01:35:00;;;;;;;0.80;0.80;;;19.00;83.50;;;;;;5074680;28;20257;-59
2023/01/15 01:37:50;;;;;;;0.88;0.73;;;19.10;83.70;;;;;;5075110;28;20722;-59
2023/01/15 01:40:40;;;;;;;0.88;0.70;;;19.00;83.80;;;;;;5073722;28;20282;-61
2023/01/15 01:43:29;;;;;;;0.70;0.70;;;18.90;83.80;;;;;;5072822;28;20258;-59
2023/01/15 01:46:17;;;;;;;1.20;0.77;;;18.80;94.10;;;;;;5073924;28;20274;-61
2023/01/15 01:49:10;;;;;;;0.80;0.80;;;18.80;84.50;;;;;;5073758;28;20698;-60
2023/01/15 01:52:02;;;;;;;0.60;0.60;;;18.80;84.50;;;;;;5072668;28;20204;-60
2023/01/15 01:54:52;;;;;;;0.88;0.70;;;18.80;84.60;;;;;;5074177;28;20204;-61
2023/01/15 01:57:40;;;;;;;1.00;0.73;;;18.80;84.50;;;;;;5072717;28;20224;-59
2023/01/15 02:00:30;;;;;;;0.98;0.70;;;18.90;84.50;;;;;;5072730;28;20276;-61
2023/01/15 02:03:23;;;;;;;0.88;0.77;;;18.90;84.40;;;;;;5073962;28;20668;-60
2023/01/15 02:06:14;;;;;;;0.65;0.65;;;18.90;84.30;;;;;;5072420;28;20673;-58
2023/01/15 02:09:02;;;;;;;1.02;0.80;;;19.00;84.30;;;;;;5073358;28;20330;-59
2023/01/15 02:11:54;;;;;;;1.60;0.70;;;19.00;84.10;;;;;;5072988;28;20205;-59
2023/01/15 02:14:50;;;;;;;0.80;0.70;;;19.10;84.20;;;;;;5072622;28;20201;-60
2023/01/15 02:17:46;;;;;;;0.70;0.70;;;19.10;84.10;;;;;;5073536;28;20358;-60
2023/01/15 02:20:39;;;;;;;0.85;0.60;;;19.10;84.00;;;;;;5073604;28;20200;-58
2023/01/15 02:23:53;;;;;;;0.63;0.63;;;19.00;84.00;;;;;;5073022;28;20205;-60
2023/01/15 02:26:58;;;;;;;0.77;0.77;;;19.10;84.00;;;;;;5072714;28;20708;-59
2023/01/15 02:29:54;;;;;;;0.60;0.60;;;19.10;84.20;;;;;;5073214;28;20232;-58
2023/01/15 02:32:45;;;;;;;1.42;1.33;;;19.10;84.10;;;;;;5068533;28;20579;-59
2023/01/15 02:35:39;;;;;;;0.60;0.60;;;19.10;84.30;;;;;;5071553;28;20300;-59
2023/01/15 02:38:32;;;;;;;0.95;0.60;;;19.10;84.20;;;;;;5072850;28;20217;-59
2023/01/15 02:41:25;;;;;;;0.70;0.70;;;19.10;84.20;;;;;;5073954;28;20258;-58
2023/01/15 02:44:17;;;;;;;0.93;0.70;;;19.10;84.20;;;;;;5074288;28;20307;-59
2023/01/15 02:47:07;;;;;;;0.60;0.55;;;19.10;84.20;;;;;;5073276;28;20251;-59
2023/01/15 02:49:59;;;;;;;1.00;0.70;;;19.10;85.00;;;;;;5072661;28;20322;-59
2023/01/15 02:52:51;;;;;;;0.70;0.60;;;19.00;84.30;;;;;;5073484;28;20691;-59
2023/01/15 02:55:44;;;;;;;1.25;0.70;;;19.00;84.40;;;;;;5072713;28;20357;-59
2023/01/15 02:58:37;;;;;;;0.73;0.70;;;19.00;84.40;;;;;;5073219;28;20654;-60
2023/01/15 03:01:32;;;;;;;1.33;0.65;;;19.00;84.70;;;;;;5071662;28;20254;-60
2023/01/15 03:04:28;;;;;;;0.70;0.70;;;18.90;84.80;;;;;;5071815;28;20266;-60
2023/01/15 03:07:21;;;;;;;0.85;0.80;;;18.80;84.90;;;;;;5071160;28;20303;-59
2023/01/15 03:10:10;;;;;;;0.70;0.70;;;18.80;85.00;;;;;;5070811;28;20331;-60
2023/01/15 03:13:06;;;;;;;0.82;0.70;;;18.80;85.10;;;;;;5071921;28;20228;-62
2023/01/15 03:19:21;;;;;;;0.70;0.70;;;18.80;85.10;;;;;;5071780;28;20203;-60
2023/01/15 03:22:13;;;;;;;1.30;0.60;;;18.80;85.00;;;;;;5071495;28;20207;-61
2023/01/15 03:25:04;;;;;;;0.70;0.65;;;18.80;85.00;;;;;;5072305;28;20235;-60
2023/01/15 03:27:54;;;;;;;0.60;0.60;;;18.90;85.10;;;;;;5072005;28;20292;-60
2023/01/15 03:30:42;;;;;;;0.80;0.60;;;18.90;85.10;;;;;;5070825;28;20202;-59
2023/01/15 03:33:30;;;;;;;0.60;0.60;;;18.90;85.00;;;;;;5071830;28;20201;-60
2023/01/15 03:36:20;;;;;;;1.02;0.65;;;19.00;95.90;;;;;;5071335;28;20297;-60
2023/01/15 03:39:08;;;;;;;0.95;0.70;;;18.90;85.00;;;;;;5071219;28;20283;-58
2023/01/15 03:42:05;;;;;;;1.10;0.65;;;19.00;85.10;;;;;;5072923;28;20327;-59
2023/01/15 03:45:02;;;;;;;0.60;0.60;;;19.00;85.10;;;;;;5072436;28;20318;-58
2023/01/15 03:48:00;;;;;;;0.57;0.57;;;19.00;85.00;;;;;;5072390;28;20221;-59
2023/01/15 03:50:50;;;;;;;0.70;0.60;;;19.00;84.90;;;;;;5071798;28;20197;-58
2023/01/15 03:53:44;;;;;;;0.70;0.60;;;19.00;84.90;;;;;;5072476;28;20205;-59
2023/01/15 03:56:39;;;;;;;1.88;0.52;;;19.00;85.00;;;;;;5072759;28;20232;-60
2023/01/15 03:59:33;;;;;;;5.68;1.17;;;19.00;85.60;;;;;;5072040;28;20289;-59
2023/01/15 04:02:23;;;;;;;0.70;0.70;;;19.00;86.10;;;;;;5072786;28;20285;-59
2023/01/15 04:05:11;;;;;;;0.70;0.60;;;18.90;85.40;;;;;;5071903;28;20289;-60
2023/01/15 04:08:01;;;;;;;1.95;0.70;;;18.90;85.40;;;;;;5071892;28;20716;-60
2023/01/15 04:10:55;;;;;;;0.60;0.60;;;18.80;85.20;;;;;;5070049;28;20696;-61
2023/01/15 04:13:43;;;;;;;0.60;0.60;;;18.80;85.50;;;;;;5070791;28;20243;-60
2023/01/15 04:16:33;;;;;;;0.70;0.60;;;18.70;97.20;;;;;;5071213;28;20773;-62
2023/01/15 04:19:21;;;;;;;0.60;0.60;;;18.70;85.70;;;;;;5069824;28;20197;-62
2023/01/15 04:22:10;;;;;;;0.70;0.70;;;18.80;85.70;;;;;;5070177;28;20683;-60
2023/01/15 04:24:58;;;;;;;1.65;0.60;;;18.80;85.60;;;;;;5071049;28;20564;-62
2023/01/15 04:27:49;;;;;;;0.65;0.65;;;18.90;85.50;;;;;;5071284;28;20633;-62
2023/01/15 04:30:37;;;;;;;1.35;0.75;;;18.90;85.20;;;;;;5074415;28;20287;-59
2023/01/15 04:33:25;;;;;;;0.70;0.60;;;19.00;85.10;;;;;;5073672;28;20200;-59
2023/01/15 04:36:14;;;;;;;0.57;0.57;;;18.80;96.50;;;;;;5074850;28;20201;-59
2023/01/15 04:39:02;;;;;;;0.60;0.60;;;19.00;84.90;;;;;;5075840;28;20276;-59
2023/01/15 04:44:57;;;;;;;1.13;0.50;;;19.00;84.50;;;;;;5074841;28;20241;-60
2023/01/15 04:47:45;;;;;;;1.35;0.60;;;19.00;84.40;;;;;;5075331;28;20291;-59
2023/01/15 04:50:33;;;;;;;0.60;0.60;;;19.00;84.10;;;;;;5073674;28;20329;-59
2023/01/15 04:53:21;;;;;;;1.45;1.15;;;19.00;83.90;;;;;;5076002;28;20236;-59
2023/01/15 04:56:10;;;;;;;0.50;0.50;;;19.00;83.40;;;;;;5075492;28;20232;-59
2023/01/15 04:59:01;;;;;;;0.50;0.50;;;19.00;82.90;;;;;;5075200;28;20254;-60
2023/01/15 05:01:51;;;;;;;0.60;0.60;;;19.00;83.50;;;;;;5074659;28;20687;-59
2023/01/15 05:04:51;;;;;;;2.13;0.75;;;19.00;82.20;;;;;;5074615;28;20761;-59
2023/01/15 05:07:39;;;;;;;0.60;0.60;;;18.90;81.70;;;;;;5075644;28;20212;-59
2023/01/15 05:10:27;;;;;;;0.60;0.60;;;18.90;83.50;;;;;;5073818;28;20232;-61
2023/01/15 05:13:15;;;;;;;0.57;0.57;;;18.80;83.60;;;;;;5074158;28;20208;-60
2023/01/15 05:16:14;;;;;;;0.60;0.60;;;18.80;82.60;;;;;;5074287;28;20235;-60
2023/01/15 05:19:07;;;;;;;1.70;0.50;;;18.80;83.30;;;;;;5074489;28;20212;-62
2023/01/15 05:21:55;;;;;;;0.50;0.50;;;18.70;82.70;;;;;;5073107;28;20711;-60
2023/01/15 05:24:43;;;;;;;0.50;0.50;;;18.70;84.30;;;;;;5073136;28;20275;-62
2023/01/15 05:27:31;;;;;;;0.50;0.45;;;18.60;84.60;;;;;;5072885;28;20724;-64
2023/01/15 05:30:19;;;;;;;1.73;0.60;;;18.60;84.70;;;;;;5072793;28;20232;-63
2023/01/15 05:33:07;;;;;;;0.90;0.50;;;18.60;84.90;;;;;;5073462;28;20196;-64
2023/01/15 05:36:01;;;;;;;0.60;0.55;;;18.60;85.00;;;;;;5073060;28;20350;-63
2023/01/15 05:38:49;;;;;;;1.63;0.55;;;18.60;84.90;;;;;;5072828;28;20653;-62
2023/01/15 05:41:49;;;;;;;0.60;0.57;;;18.60;84.90;;;;;;5073317;28;20228;-62
2023/01/15 05:44:38;;;;;;;1.60;0.50;;;18.70;84.80;;;;;;5073817;28;20201;-62
2023/01/15 05:47:26;;;;;;;0.50;0.50;;;18.70;84.70;;;;;;5072844;28;20245;-60
2023/01/15 05:50:14;;;;;;;0.55;0.52;;;18.80;84.60;;;;;;5073485;28;20244;-59
2023/01/15 05:53:03;;;;;;;1.65;0.50;;;18.60;84.40;;;;;;5073184;28;20319;-61
2023/01/15 05:55:51;;;;;;;0.73;0.60;;;18.80;84.50;;;;;;5073759;28;20681;-59
2023/01/15 05:58:39;;;;;;;0.50;0.50;;;18.80;84.40;;;;;;5072998;28;20305;-61
2023/01/15 06:01:27;;;;;;;0.50;0.50;;;18.80;84.30;;;;;;5072420;28;20564;-59
2023/01/15 06:04:19;;;;;;;0.50;0.50;;;18.80;84.20;;;;;;5073384;28;20197;-60
2023/01/15 06:07:07;;;;;;;0.50;0.50;;;18.80;84.70;;;;;;5073313;28;20220;-60
2023/01/15 06:09:57;;;;;;;0.90;0.52;;;18.90;83.90;;;;;;5072594;28;20253;-59
2023/01/15 06:12:46;;;;;;;0.55;0.50;;;19.00;83.20;;;;;;5072991;28;20242;-59
2023/01/15 06:15:34;;;;;;;0.60;0.60;;;18.90;83.80;;;;;;5072992;28;20665;-59
2023/01/15 06:18:23;;;;;;;0.50;0.50;;;18.90;83.70;;;;;;5073034;28;20307;-59
2023/01/15 06:21:13;;;;;;;0.60;0.60;;;18.90;83.70;;;;;;5072897;28;20200;-60
2023/01/15 06:24:01;;;;;;;0.75;0.50;;;18.90;83.70;;;;;;5073076;28;20801;-59
2023/01/15 06:26:51;;;;;;;0.95;0.50;;;18.90;83.80;;;;;;5072204;28;20232;-59
2023/01/15 06:29:39;;;;;;;0.50;0.50;;;18.90;83.80;;;;;;5072531;28;20189;-60
2023/01/15 06:32:27;;;;;;;0.57;0.57;;;18.80;83.70;;;;;;5072154;28;20806;-61
2023/01/15 06:35:15;;;;;;;0.70;0.50;;;18.80;83.80;;;;;;5071083;28;20283;-60
2023/01/15 06:38:03;;;;;;;0.50;0.50;;;18.70;82.70;;;;;;5072700;28;20224;-61
2023/01/15 06:40:51;;;;;;;1.10;0.70;;;18.70;83.00;;;;;;5072014;28;20265;-60
2023/01/15 06:49:57;;;;;;;0.50;0.50;;;18.50;84.40;;;;;;5071026;28;20674;-62
2023/01/15 06:52:45;;;;;;;0.50;0.40;;;18.50;84.50;;;;;;5070754;28;20200;-64
2023/01/15 06:55:33;;;;;;;0.57;0.55;;;18.50;84.50;;;;;;5070992;28;20860;-62
2023/01/15 06:58:22;;;;;;;0.50;0.50;;;18.50;84.60;;;;;;5072166;28;20224;-63
2023/01/15 07:01:13;;;;;;;0.60;0.60;;;18.50;84.50;;;;;;5071433;28;20284;-62
2023/01/15 07:04:01;;;;;;;0.50;0.50;;;18.50;84.40;;;;;;5070559;28;20201;-63
2023/01/15 07:06:49;;;;;;;0.60;0.50;;;18.60;84.50;;;;;;5071599;28;20221;-61
2023/01/15 07:09:37;;;;;;;0.60;0.60;;;18.60;84.40;;;;;;5071957;28;20284;-61
2023/01/15 07:12:26;;;;;;;0.57;0.57;;;18.60;84.30;;;;;;5071737;28;20258;-60
2023/01/15 07:15:14;;;;;;;0.50;0.50;;;18.60;84.20;;;;;;5072088;28;20685;-59
2023/01/15 07:18:04;;;;;;;0.60;0.60;;;18.70;84.10;;;;;;5071685;28;20286;-59
2023/01/15 07:20:55;;;;;;;0.45;0.45;;;18.70;83.90;;;;;;5071755;28;20215;-60
2023/01/15 07:23:43;;;;;;;0.57;0.57;;;18.80;83.80;;;;;;5072035;28;20279;-60
2023/01/15 07:26:31;;;;;;;1.23;0.60;;;18.70;96.30;;;;;;5072082;28;20283;-61
2023/01/15 07:29:19;;;;;;;0.70;0.60;;;18.80;83.80;;;;;;5072051;28;20271;-60
2023/01/15 07:32:07;;;;;;;0.60;0.60;;;18.80;83.70;;;;;;5071610;28;20286;-60
2023/01/15 07:34:57;;;;;;;0.60;0.60;;;18.70;83.60;;;;;;5070619;28;20200;-61
2023/01/15 07:37:45;;;;;;;0.55;0.50;;;18.70;83.60;;;;;;5071162;28;20243;-62
2023/01/15 07:40:33;;;;;;;0.60;0.60;;;18.70;83.60;;;;;;5071026;28;20286;-60
2023/01/15 07:49:48;;;;;;;0.60;0.50;;;18.60;83.80;;;;;;5071344;28;20304;-64
2023/01/15 07:52:37;;;;;;;0.50;0.50;;;18.50;84.10;;;;;;5072242;28;20275;-65
2023/01/15 07:55:25;;;;;;;0.50;0.50;;;18.50;84.30;;;;;;5071537;28;20200;-62
2023/01/15 07:58:13;;;;;;;0.57;0.50;;;18.50;84.30;;;;;;5071002;28;20354;-65
2023/01/15 08:01:01;;;;;;;0.50;0.50;;;18.50;84.40;;;;;;5070382;28;20736;-66
2023/01/15 08:03:49;;;;;;;1.40;0.60;;;18.50;84.40;;;;;;5070347;28;20266;-64
2023/01/15 08:06:38;;;;;;;0.50;0.50;;;18.60;84.40;;;;;;5069541;28;20217;-63
2023/01/15 08:09:28;;;;;;;0.50;0.50;;;18.60;84.30;;;;;;5071055;28;20668;-62
2023/01/15 08:15:23;;;;;;;0.50;0.50;;;18.70;83.90;;;;;;5070179;28;20293;-60
2023/01/15 08:18:11;;;;;;;1.02;0.60;;;18.80;83.90;;;;;;5071103;28;20312;-60
2023/01/15 08:20:59;;;;;;;0.50;0.50;;;18.80;83.70;;;;;;5070545;28;20707;-59
2023/01/15 08:23:49;;;;;;;0.50;0.50;;;18.90;83.60;;;;;;5071100;28;20230;-61
2023/01/15 08:26:38;;;;;;;0.60;0.60;;;18.90;83.40;;;;;;5071120;28;20220;-60
2023/01/15 08:29:27;;;;;;;0.50;0.50;;;18.90;83.30;;;;;;5071458;28;20678;-60
2023/01/15 08:32:15;;;;;;;0.52;0.52;;;19.00;83.30;;;;;;5071649;28;20322;-60
2023/01/15 08:35:04;;;;;;;0.60;0.60;;;18.90;83.10;;;;;;5071215;28;20729;-60
2023/01/15 08:37:52;;;;;;;0.75;0.50;;;19.00;83.00;;;;;;5071588;28;20228;-59
2023/01/15 08:43:44;;;;;;;0.63;0.60;;;19.00;82.70;;;;;;5072221;28;20204;-60
2023/01/15 08:46:32;;;;;;;0.50;0.50;;;19.20;96.20;;;;;;5070665;28;20197;-59
2023/01/15 08:49:21;;;;;;;0.57;0.52;;;18.90;82.30;;;;;;5070394;28;20699;-59
2023/01/15 08:52:09;;;;;;;0.52;0.52;;;18.90;82.10;;;;;;5070934;28;20197;-60
2023/01/15 08:54:57;;;;;;;0.60;0.60;;;18.90;81.40;;;;;;5071007;28;20238;-60
2023/01/15 08:57:46;;;;;;;0.50;0.50;;;18.90;81.20;;;;;;5070338;28;20228;-61
2023/01/15 09:00:35;;;;;;;0.60;0.60;;;18.80;81.10;;;;;;5070101;28;20298;-60
2023/01/15 09:03:23;;;;;;;1.02;0.60;;;18.80;81.20;;;;;;5070095;28;20318;-61
2023/01/15 09:06:12;;;;;;;1.35;0.57;;;18.70;82.10;;;;;;5070219;28;20285;-60
2023/01/15 09:09:00;;;;;;;0.50;0.50;;;18.70;81.70;;;;;;5069761;28;20200;-62
2023/01/15 09:11:48;;;;;;;0.60;0.60;;;18.60;83.00;;;;;;5069932;28;20279;-61
2023/01/15 09:14:36;;;;;;;0.52;0.52;;;18.50;83.50;;;;;;5071280;28;20279;-61
2023/01/15 09:17:46;;;;;;;0.45;0.45;;;18.50;83.70;;;;;;5072909;28;20247;-64
2023/01/15 09:20:34;;;;;;;0.60;0.50;;;18.60;83.80;;;;;;5073252;28;20286;-64
2023/01/15 09:23:22;;;;;;;0.88;0.50;;;18.60;83.60;;;;;;5073572;28;20681;-63
2023/01/15 09:26:27;;;;;;;0.60;0.60;;;18.70;83.60;;;;;;5073719;28;20250;-60
2023/01/15 09:29:15;;;;;;;0.70;0.60;;;18.80;83.50;;;;;;5072863;28;20279;-62
2023/01/15 09:32:03;;;;;;;0.55;0.55;;;18.80;83.30;;;;;;5073375;28;20251;-61
2023/01/15 09:34:53;;;;;;;0.50;0.50;;;18.90;83.20;;;;;;5073418;28;20205;-62
2023/01/15 09:37:41;;;;;;;0.60;0.60;;;18.90;83.00;;;;;;5073824;28;20284;-61
2023/01/15 09:40:43;;;;;;;0.50;0.50;;;19.00;82.90;;;;;;5073814;28;20782;-61
2023/01/15 09:43:46;;;;;;;0.70;0.60;;;19.00;82.70;;;;;;5073444;28;20810;-60
2023/01/15 09:46:45;;;;;;;0.60;0.60;;;19.00;82.60;;;;;;5073915;28;20248;-59
2023/01/15 09:49:48;;;;;;;0.52;0.45;;;19.10;82.40;;;;;;5073732;28;20274;-59
2023/01/15 09:52:58;;;;;;;0.77;0.40;;;19.00;82.30;;;;;;5074564;28;20224;-59
2023/01/15 09:55:48;;;;;;;0.50;0.50;;;19.10;82.20;;;;;;5074373;28;20239;-59
2023/01/15 09:58:39;;;;;;;1.38;0.50;;;19.10;82.20;;;;;;5074752;28;20235;-59
2023/01/15 10:01:29;;;;;;;0.40;0.40;;;19.10;82.50;;;;;;5073792;28;20280;-58
2023/01/15 10:04:31;;;;;;;0.50;0.50;;;19.00;81.90;;;;;;5073146;28;20207;-60
2023/01/15 10:07:27;;;;;;;0.65;0.60;;;19.10;81.90;;;;;;5074861;28;20213;-59
2023/01/15 10:10:22;;;;;;;0.50;0.50;;;19.10;81.50;;;;;;5074424;28;20237;-59
2023/01/15 10:13:17;;;;;;;1.00;0.50;;;19.10;81.70;;;;;;5073310;28;20255;-58
2023/01/15 10:16:07;;;;;;;0.50;0.50;;;19.10;81.70;;;;;;5074142;28;20230;-60
2023/01/15 10:18:57;;;;;;;0.50;0.50;;;19.10;82.00;;;;;;5073563;28;20213;-59
2023/01/15 10:21:53;;;;;;;0.70;0.60;;;19.00;81.80;;;;;;5073111;28;20193;-59
2023/01/15 10:24:46;;;;;;;0.73;0.63;;;19.00;81.90;;;;;;5073872;28;20635;-59
2023/01/15 10:27:39;;;;;;;0.57;0.57;;;19.00;82.00;;;;;;5071909;28;20299;-59
2023/01/15 10:30:36;;;;;;;0.50;0.50;;;18.90;82.00;;;;;;5072295;28;20193;-59
2023/01/15 10:33:39;;;;;;;0.60;0.60;;;18.90;82.00;;;;;;5072838;28;20259;-58
2023/01/15 10:36:33;;;;;;;0.68;0.50;;;18.80;95.70;;;;;;5071999;28;20208;-60
2023/01/15 10:39:29;;;;;;;0.70;0.70;;;18.80;82.30;;;;;;5071324;28;20283;-60
2023/01/15 10:42:30;;;;;;;1.95;0.70;;;18.70;82.60;;;;;;5071468;28;20250;-63
2023/01/15 10:45:24;;;;;;;0.50;0.50;;;18.60;82.70;;;;;;5071804;28;20200;-62
2023/01/15 10:48:18;;;;;;;0.55;0.55;;;18.70;82.90;;;;;;5072349;28;20307;-61
2023/01/15 10:51:15;;;;;;;0.60;0.60;;;18.60;82.90;;;;;;5072385;28;20277;-62
2023/01/15 10:54:08;;;;;;;0.50;0.50;;;18.70;82.90;;;;;;5071947;28;20676;-59
2023/01/15 10:57:01;;;;;;;0.60;0.50;;;18.80;82.80;;;;;;5071632;28;20281;-61
2023/01/15 10:59:56;;;;;;;0.90;0.60;;;18.70;83.30;;;;;;5071530;28;20309;-61
2023/01/15 11:02:50;;;;;;;0.50;0.50;;;18.80;82.60;;;;;;5072051;28;20193;-60
2023/01/15 11:05:38;;;;;;;1.15;0.55;;;18.80;82.40;;;;;;5051728;28;20198;-60
2023/01/15 11:08:29;;;;;;;0.73;0.50;;;18.90;82.40;;;;;;5057609;28;20232;-61
2023/01/15 11:21:13;;;;;;;0.75;0.55;;;19.10;81.90;;;;;;5072572;28;20256;-59
2023/01/15 11:24:01;;;;;;;0.60;0.60;;;19.00;81.70;;;;;;5072384;28;20989;-59
2023/01/15 11:26:53;;;;;;;0.50;0.50;;;19.10;81.70;;;;;;5072633;28;20298;-59
2023/01/15 11:29:44;;;;;;;0.50;0.50;;;19.10;81.60;;;;;;5072697;28;20689;-59
2023/01/15 11:32:34;;;;;;;0.50;0.50;;;19.10;81.30;;;;;;5073550;28;20327;-58
2023/01/15 11:35:23;;;;;;;0.50;0.50;;;19.20;81.20;;;;;;5072764;28;20288;-58
2023/01/15 11:38:14;;;;;;;1.20;0.60;;;19.20;81.10;;;;;;5072186;28;20216;-59
2023/01/15 11:41:04;;;;;;;1.02;0.60;;;19.20;80.90;;;;;;5071887;28;20225;-59
2023/01/15 11:53:29;;;;;;;0.50;0.50;;;19.00;79.80;;;;;;5072549;28;20586;-60
2023/01/15 11:56:19;;;;;;;0.50;0.50;;;18.80;94.20;;;;;;5071088;28;20196;-60
2023/01/15 11:59:12;;;;;;;0.60;0.60;;;18.80;79.60;;;;;;5071083;28;20201;-60
2023/01/15 12:02:03;;;;;;;1.02;0.60;;;18.80;80.20;;;;;;5070966;28;20227;-60
2023/01/15 12:04:53;;;;;;;0.50;0.50;;;18.80;81.60;;;;;;5054417;28;20197;-60
2023/01/15 12:07:42;;;;;;;0.60;0.60;;;18.70;82.00;;;;;;5049840;28;20263;-60
2023/01/15 12:13:49;;;;;;;1.73;0.50;;;18.60;82.20;;;;;;5050150;28;20788;-62
2023/01/15 12:16:43;;;;;;;0.70;0.60;;;18.70;82.20;;;;;;5049844;28;20725;-61
2023/01/15 12:19:42;;;;;;;0.50;0.50;;;18.80;82.30;;;;;;5049934;28;20541;-60
2023/01/15 12:22:44;;;;;;;0.80;0.50;;;18.80;82.10;;;;;;5050401;28;20286;-61
2023/01/15 12:25:42;;;;;;;0.60;0.60;;;18.80;81.90;;;;;;5050107;28;20279;-60
2023/01/15 12:28:33;;;;;;;0.60;0.60;;;18.90;81.80;;;;;;5050161;28;20300;-60
2023/01/15 12:31:26;;;;;;;0.98;0.60;;;18.90;81.80;;;;;;5050527;28;20323;-60
2023/01/15 12:34:22;;;;;;;3.60;0.60;;;18.90;81.70;;;;;;5050600;28;20205;-60
2023/01/15 12:37:19;;;;;;;1.20;0.50;;;19.00;81.60;;;;;;5050574;28;20220;-59
2023/01/15 12:40:20;;;;;;;0.60;0.60;;;19.00;81.40;;;;;;5050350;28;20208;-59
2023/01/15 12:46:27;;;;;;;0.60;0.60;;;19.00;92.80;;;;;;5050412;28;20702;-59
2023/01/15 12:49:31;;;;;;;1.00;0.65;;;19.00;81.20;;;;;;5050340;28;20198;-59
2023/01/15 12:52:24;;;;;;;0.57;0.50;;;18.90;81.10;;;;;;5055278;28;20233;-59
2023/01/15 12:55:15;;;;;;;0.80;0.70;;;18.90;81.00;;;;;;5054626;28;20201;-59
2023/01/15 12:58:11;;;;;;;0.80;0.60;;;19.00;80.90;;;;;;5055190;28;20279;-59
2023/01/15 13:01:07;;;;;;;0.70;0.60;;;19.00;80.90;;;;;;5054410;28;20719;-59
2023/01/15 13:04:07;;;;;;;0.93;0.60;;;19.00;81.00;;;;;;5063330;28;20215;-59
2023/01/15 13:07:00;;;;;;;0.60;0.60;;;19.00;80.90;;;;;;5075148;28;20235;-59
2023/01/15 13:09:55;;;;;;;2.65;0.60;;;18.90;80.80;;;;;;5075569;28;20293;-59
2023/01/15 13:12:43;;;;;;;1.50;0.60;;;19.00;80.80;;;;;;5074786;28;20224;-60
2023/01/15 13:15:38;;;;;;;2.50;0.60;;;18.20;80.10;;;;;;5074295;28;20616;-59
2023/01/15 13:18:35;;;;;;;0.60;0.60;;;18.80;80.80;;;;;;5074098;28;20307;-60
2023/01/15 13:21:25;;;;;;;0.60;0.60;;;18.80;81.00;;;;;;5073518;28;20220;-60
2023/01/15 13:24:30;;;;;;;0.70;0.50;;;18.70;81.40;;;;;;5073481;28;20196;-60
2023/01/15 13:27:34;;;;;;;1.35;0.60;;;18.70;81.60;;;;;;5073670;28;20334;-61
2023/01/15 13:30:42;;;;;;;1.20;0.90;;;18.70;81.70;;;;;;5072677;28;20694;-59
2023/01/15 13:33:40;;;;;;;0.80;0.65;;;18.70;81.70;;;;;;5072854;28;20212;-64
2023/01/15 13:36:36;;;;;;;1.35;0.70;;;18.70;95.10;;;;;;5072674;28;20279;-62
2023/01/15 13:39:30;;;;;;;0.75;0.70;;;18.70;81.70;;;;;;5072827;28;20266;-64
2023/01/15 13:42:34;;;;;;;1.58;0.60;;;18.70;81.60;;;;;;5073514;28;20300;-63
2023/01/15 13:45:35;;;;;;;0.88;0.60;;;18.80;81.60;;;;;;5073849;28;20713;-60
2023/01/15 13:48:30;;;;;;;0.70;0.70;;;18.70;81.40;;;;;;5072469;28;20299;-61
2023/01/15 13:51:29;;;;;;;1.77;0.60;;;18.90;81.50;;;;;;5072987;28;20750;-60
2023/01/15 13:54:20;;;;;;;0.57;0.57;;;18.90;81.30;;;;;;5072893;28;20193;-59
2023/01/15 13:57:09;;;;;;;1.77;0.70;;;18.90;81.20;;;;;;5073263;28;20346;-60
2023/01/15 13:59:57;;;;;;;0.85;0.60;;;19.00;81.20;;;;;;5073715;28;20573;-60
2023/01/15 14:02:52;;;;;;;1.42;0.70;;;19.00;80.90;;;;;;5072864;28;20374;-60
2023/01/15 14:05:40;;;;;;;0.60;0.50;;;18.90;80.80;;;;;;5053758;28;20197;-59
2023/01/15 14:08:39;;;;;;;1.20;0.60;;;19.00;80.80;;;;;;5053513;28;20218;-59
2023/01/15 14:11:35;;;;;;;0.80;0.68;;;19.10;80.70;;;;;;5053787;28;20327;-59
2023/01/15 14:14:51;;;;;;;0.60;0.60;;;19.00;80.40;;;;;;5053568;28;20416;-59
2023/01/15 14:18:10;;;;;;;0.55;0.55;;;19.00;80.10;;;;;;5041514;28;20713;-58
2023/01/15 14:21:14;;;;;;;0.70;0.70;;;19.10;80.30;;;;;;5053302;28;20247;-59
2023/01/15 14:24:18;;;;;;;0.70;0.60;;;19.00;80.00;;;;;;5053631;28;20577;-59
2023/01/15 14:27:12;;;;;;;2.10;0.65;;;19.00;79.80;;;;;;5053682;28;20275;-59
2023/01/15 14:30:19;;;;;;;0.70;0.63;;;18.90;79.10;;;;;;5052267;28;20279;-59
2023/01/15 14:33:18;;;;;;;0.60;0.60;;;18.90;79.20;;;;;;5052881;28;20280;-59
2023/01/15 14:36:14;;;;;;;1.35;0.63;;;18.90;79.30;;;;;;5051896;28;20205;-60
2023/01/15 14:39:05;;;;;;;0.80;0.77;;;18.80;79.40;;;;;;5052354;28;20229;-59
2023/01/15 14:45:08;;;;;;;0.60;0.60;;;18.60;80.90;;;;;;5052339;28;20591;-64
2023/01/15 14:47:58;;;;;;;1.67;0.60;;;18.60;81.10;;;;;;5052145;28;20279;-64
2023/01/15 14:50:48;;;;;;;0.60;0.50;;;18.60;81.00;;;;;;5051952;28;20228;-63
2023/01/15 14:53:43;;;;;;;1.52;0.70;;;18.60;81.20;;;;;;5051943;28;20585;-60
2023/01/15 14:56:35;;;;;;;2.05;0.60;;;18.70;94.90;;;;;;5051369;28;20197;-62
2023/01/15 14:59:28;;;;;;;0.70;0.70;;;18.70;81.10;;;;;;5051098;28;20689;-63
2023/01/15 15:02:22;;;;;;;1.00;0.70;;;18.70;81.00;;;;;;5051624;28;20249;-64
2023/01/15 15:05:15;;;;;;;1.55;0.80;;;18.70;80.90;;;;;;5070709;28;20576;-60
2023/01/15 15:08:04;;;;;;;1.02;0.50;;;18.70;80.70;;;;;;5071630;28;20522;-61
2023/01/15 15:10:55;;;;;;;0.50;0.50;;;18.80;80.50;;;;;;5069702;28;20212;-64
2023/01/15 15:13:47;;;;;;;2.05;0.98;;;18.80;80.50;;;;;;5070999;28;20281;-60
2023/01/15 15:16:43;;;;;;;1.23;0.65;;;18.80;80.40;;;;;;5071518;28;20639;-59
2023/01/15 15:19:37;;;;;;;1.33;0.70;;;18.80;80.20;;;;;;5071235;28;20200;-60
2023/01/15 15:22:31;;;;;;;0.68;0.65;;;18.80;80.00;;;;;;5071406;28;20725;-60
2023/01/15 15:25:23;;;;;;;1.35;0.70;;;18.80;79.90;;;;;;5071522;28;20201;-59
2023/01/15 15:28:12;;;;;;;1.25;1.02;;;18.90;79.90;;;;;;5072015;28;20216;-59
2023/01/15 15:31:01;;;;;;;0.50;0.50;;;18.90;79.10;;;;;;5071659;28;20246;-60
2023/01/15 15:33:50;;;;;;;0.90;0.65;;;18.90;78.70;;;;;;5071144;28;20200;-60
2023/01/15 15:36:38;;;;;;;1.45;0.70;;;18.80;79.20;;;;;;5072035;28;20748;-59
2023/01/15 15:39:34;;;;;;;1.02;0.60;;;18.90;79.50;;;;;;5071524;28;20238;-60
2023/01/15 15:48:44;;;;;;;1.25;0.70;;;18.80;79.30;;;;;;5071407;28;20361;-62
2023/01/15 15:51:36;;;;;;;0.90;0.80;;;18.70;80.00;;;;;;5071683;28;20201;-61
2023/01/15 15:54:26;;;;;;;0.90;0.90;;;18.70;79.40;;;;;;5071078;28;20840;-60
2023/01/15 15:57:18;;;;;;;1.92;0.73;;;18.60;79.00;;;;;;5093528;22;20628;-62
2023/01/15 16:00:18;;;;;;;1.92;1.00;;;18.60;79.90;;;;;;5073336;28;20251;-63
2023/01/15 16:03:16;;;;;;;2.35;0.80;;;18.50;80.10;;;;;;5074385;28;20257;-63